VLG150 LEMH-LEMG
Flight info
| Callsign | VLG150 |
|---|---|
| Flight time | 1h 21m |
| Altitude | 37000 |
| Route | EDULI M603 IBEBA DCT BAVER M603 ALT DCT RESTU N851 TOSGA DCT ROLAS N851 UNTOS |
| Aircraft | A320/M-SDE3FGHIRWY/LB1 |
Departure
| Time | 2026-04-11 07:51 |
|---|---|
| Airport | Menorca Airport (LEMH) |
Arrival
| Time | 2026-04-11 09:12 |
|---|---|
| Airport | Málaga-Costa del Sol Airport (LEMG) |
| Time | Latitude | Longitude | Altitude | Speed | Heading |
|---|---|---|---|---|---|
| 2026-04-11 07:17 | 39.86466 | 4.22402 | 287 ft | 0 kts | 100° |
| 2026-04-11 07:30 | 39.86466 | 4.22401 | 286 ft | 0 kts | 100° |
| 2026-04-11 07:43 | 39.86468 | 4.22386 | 292 ft | 3 kts | 103° |
| 2026-04-11 07:43 | 39.86473 | 4.22360 | 291 ft | 3 kts | 112° |
| 2026-04-11 07:43 | 39.86482 | 4.22337 | 298 ft | 3 kts | 134° |
| 2026-04-11 07:44 | 39.86496 | 4.22324 | 295 ft | 2 kts | 181° |
| 2026-04-11 07:44 | 39.86505 | 4.22325 | 292 ft | 1 kts | 189° |
| 2026-04-11 07:44 | 39.86506 | 4.22325 | 292 ft | 1 kts | 189° |
| 2026-04-11 07:46 | 39.86483 | 4.22321 | 294 ft | 7 kts | 189° |
| 2026-04-11 07:46 | 39.86410 | 4.22306 | 294 ft | 14 kts | 188° |
| 2026-04-11 07:46 | 39.86301 | 4.22284 | 288 ft | 17 kts | 189° |
| 2026-04-11 07:47 | 39.86193 | 4.22249 | 293 ft | 14 kts | 225° |
| 2026-04-11 07:47 | 39.86189 | 4.22147 | 291 ft | 11 kts | 277° |
| 2026-04-11 07:47 | 39.86143 | 4.22080 | 299 ft | 13 kts | 191° |
| 2026-04-11 07:47 | 39.86028 | 4.22057 | 298 ft | 20 kts | 188° |
| 2026-04-11 07:48 | 39.85869 | 4.22024 | 297 ft | 27 kts | 189° |
| 2026-04-11 07:48 | 39.85662 | 4.21982 | 289 ft | 33 kts | 189° |
| 2026-04-11 07:48 | 39.85429 | 4.21935 | 283 ft | 35 kts | 189° |
| 2026-04-11 07:48 | 39.85215 | 4.21886 | 281 ft | 22 kts | 189° |
| 2026-04-11 07:49 | 39.85132 | 4.21823 | 283 ft | 12 kts | 264° |
| 2026-04-11 07:49 | 39.85140 | 4.21732 | 284 ft | 9 kts | 283° |
| 2026-04-11 07:49 | 39.85155 | 4.21671 | 286 ft | 5 kts | 295° |
| 2026-04-11 07:49 | 39.85182 | 4.21647 | 286 ft | 7 kts | 343° |
| 2026-04-11 07:50 | 39.85220 | 4.21650 | 286 ft | 0 kts | 9° |
| 2026-04-11 07:50 | 39.85224 | 4.21651 | 285 ft | 8 kts | 9° |
| 2026-04-11 07:50 | 39.85560 | 4.21722 | 291 ft | 85 kts | 9° |
| 2026-04-11 07:51 | 39.86366 | 4.21886 | 303 ft | 144 kts | 9° |
| 2026-04-11 07:51 | 39.87428 | 4.22096 | 684 ft | 154 kts | 11° |
| 2026-04-11 07:51 | 39.88491 | 4.22326 | 1249 ft | 159 kts | 12° |
| 2026-04-11 07:51 | 39.89622 | 4.22563 | 1676 ft | 171 kts | 12° |
| 2026-04-11 07:52 | 39.90850 | 4.22813 | 1998 ft | 189 kts | 11° |
| 2026-04-11 07:52 | 39.92222 | 4.23098 | 2381 ft | 209 kts | 10° |
| 2026-04-11 07:52 | 39.93723 | 4.23415 | 2767 ft | 229 kts | 9° |
| 2026-04-11 07:52 | 39.95346 | 4.23939 | 3154 ft | 252 kts | 25° |
| 2026-04-11 07:53 | 39.96801 | 4.25316 | 3614 ft | 268 kts | 49° |
| 2026-04-11 07:53 | 39.97749 | 4.27446 | 4328 ft | 276 kts | 73° |
| 2026-04-11 07:53 | 39.97911 | 4.29969 | 5128 ft | 280 kts | 100° |
| 2026-04-11 07:53 | 39.97160 | 4.32294 | 5921 ft | 282 kts | 128° |
| 2026-04-11 07:54 | 39.95673 | 4.33865 | 6707 ft | 282 kts | 157° |
| 2026-04-11 07:54 | 39.93756 | 4.34303 | 7466 ft | 282 kts | 185° |
| 2026-04-11 07:54 | 39.91869 | 4.33647 | 8267 ft | 282 kts | 207° |
| 2026-04-11 07:54 | 39.90307 | 4.32106 | 9021 ft | 284 kts | 231° |
| 2026-04-11 07:55 | 39.89402 | 4.29835 | 9787 ft | 286 kts | 255° |
| 2026-04-11 07:55 | 39.88937 | 4.27293 | 10490 ft | 291 kts | 256° |
| 2026-04-11 07:55 | 39.88248 | 4.24793 | 11142 ft | 301 kts | 245° |
| 2026-04-11 07:55 | 39.87047 | 4.22433 | 11367 ft | 326 kts | 230° |
| 2026-04-11 07:56 | 39.85386 | 4.20317 | 11755 ft | 340 kts | 226° |
| 2026-04-11 07:56 | 39.83742 | 4.18063 | 12467 ft | 345 kts | 229° |
| 2026-04-11 07:56 | 39.82164 | 4.15699 | 13211 ft | 347 kts | 231° |
| 2026-04-11 07:56 | 39.80608 | 4.13282 | 13935 ft | 350 kts | 231° |
| 2026-04-11 07:57 | 39.79044 | 4.10845 | 14588 ft | 352 kts | 231° |
| 2026-04-11 07:57 | 39.77458 | 4.08405 | 15239 ft | 354 kts | 230° |
| 2026-04-11 07:57 | 39.75847 | 4.05967 | 15885 ft | 356 kts | 230° |
| 2026-04-11 07:57 | 39.74217 | 4.03530 | 16533 ft | 359 kts | 229° |
| 2026-04-11 07:58 | 39.72567 | 4.01082 | 17183 ft | 361 kts | 229° |
| 2026-04-11 07:58 | 39.70900 | 3.98621 | 17791 ft | 364 kts | 229° |
| 2026-04-11 07:58 | 39.69220 | 3.96146 | 18393 ft | 366 kts | 229° |
| 2026-04-11 07:58 | 39.67526 | 3.93650 | 18931 ft | 369 kts | 229° |
| 2026-04-11 07:59 | 39.65828 | 3.91144 | 19477 ft | 371 kts | 229° |
| 2026-04-11 07:59 | 39.64122 | 3.88622 | 20026 ft | 373 kts | 229° |
| 2026-04-11 07:59 | 39.62406 | 3.86082 | 20568 ft | 376 kts | 229° |
| 2026-04-11 07:59 | 39.60679 | 3.83527 | 21125 ft | 378 kts | 229° |
| 2026-04-11 08:00 | 39.58937 | 3.80953 | 21673 ft | 380 kts | 229° |
| 2026-04-11 08:00 | 39.57187 | 3.78375 | 22197 ft | 383 kts | 229° |
| 2026-04-11 08:00 | 39.55422 | 3.75770 | 22730 ft | 385 kts | 230° |
| 2026-04-11 08:00 | 39.54030 | 3.73009 | 23209 ft | 387 kts | 246° |
| 2026-04-11 08:01 | 39.53286 | 3.69663 | 23667 ft | 390 kts | 261° |
| 2026-04-11 08:01 | 39.52920 | 3.66173 | 24072 ft | 392 kts | 261° |
| 2026-04-11 08:01 | 39.52568 | 3.62657 | 24488 ft | 394 kts | 261° |
| 2026-04-11 08:01 | 39.52221 | 3.59126 | 24884 ft | 396 kts | 261° |
| 2026-04-11 08:02 | 39.51872 | 3.55580 | 25267 ft | 398 kts | 261° |
| 2026-04-11 08:02 | 39.51515 | 3.52007 | 25644 ft | 400 kts | 260° |
| 2026-04-11 08:02 | 39.51154 | 3.48430 | 26008 ft | 402 kts | 260° |
| 2026-04-11 08:02 | 39.50786 | 3.44828 | 26371 ft | 404 kts | 260° |
| 2026-04-11 08:03 | 39.50413 | 3.41218 | 26740 ft | 406 kts | 259° |
| 2026-04-11 08:03 | 39.50036 | 3.37588 | 27095 ft | 408 kts | 259° |
| 2026-04-11 08:03 | 39.49655 | 3.33933 | 27441 ft | 410 kts | 259° |
| 2026-04-11 08:03 | 39.49275 | 3.30267 | 27782 ft | 412 kts | 259° |
| 2026-04-11 08:04 | 39.48894 | 3.26587 | 28118 ft | 414 kts | 259° |
| 2026-04-11 08:04 | 39.48509 | 3.22883 | 28454 ft | 416 kts | 259° |
| 2026-04-11 08:04 | 39.48121 | 3.19165 | 28792 ft | 418 kts | 259° |
| 2026-04-11 08:04 | 39.47731 | 3.15423 | 29107 ft | 420 kts | 258° |
| 2026-04-11 08:05 | 39.47354 | 3.11799 | 29404 ft | 421 kts | 258° |
| 2026-04-11 08:05 | 39.46962 | 3.08031 | 29697 ft | 424 kts | 258° |
| 2026-04-11 08:05 | 39.46565 | 3.04249 | 29979 ft | 426 kts | 258° |
| 2026-04-11 08:05 | 39.46165 | 3.00447 | 30223 ft | 427 kts | 258° |
| 2026-04-11 08:06 | 39.45758 | 2.96622 | 30461 ft | 429 kts | 258° |
| 2026-04-11 08:06 | 39.45353 | 2.92842 | 30693 ft | 430 kts | 258° |
| 2026-04-11 08:06 | 39.44941 | 2.89001 | 30927 ft | 432 kts | 258° |
| 2026-04-11 08:06 | 39.44527 | 2.85144 | 31187 ft | 432 kts | 258° |
| 2026-04-11 08:07 | 39.44117 | 2.81304 | 31509 ft | 430 kts | 258° |
| 2026-04-11 08:07 | 39.43722 | 2.77630 | 31820 ft | 429 kts | 257° |
| 2026-04-11 08:07 | 39.43317 | 2.73814 | 32140 ft | 428 kts | 258° |
| 2026-04-11 08:08 | 39.42642 | 2.66174 | 32771 ft | 427 kts | 259° |
| 2026-04-11 08:08 | 39.42438 | 2.63589 | 32974 ft | 426 kts | 259° |
| 2026-04-11 08:08 | 39.42140 | 2.59778 | 33287 ft | 425 kts | 259° |
| 2026-04-11 08:08 | 39.41837 | 2.55983 | 33603 ft | 424 kts | 259° |
| 2026-04-11 08:09 | 39.41524 | 2.52196 | 33904 ft | 423 kts | 258° |
| 2026-04-11 08:09 | 39.41201 | 2.48421 | 34157 ft | 422 kts | 258° |
| 2026-04-11 08:09 | 39.40868 | 2.44654 | 34400 ft | 422 kts | 258° |
| 2026-04-11 08:09 | 39.40304 | 2.40961 | 34612 ft | 416 kts | 249° |
| 2026-04-11 08:10 | 39.39350 | 2.37444 | 34812 ft | 414 kts | 245° |
| 2026-04-11 08:10 | 39.38323 | 2.33967 | 35003 ft | 415 kts | 245° |
| 2026-04-11 08:10 | 39.37300 | 2.30484 | 35197 ft | 415 kts | 245° |
| 2026-04-11 08:10 | 39.36279 | 2.26998 | 35388 ft | 415 kts | 245° |
| 2026-04-11 08:11 | 39.35254 | 2.23508 | 35573 ft | 415 kts | 245° |
| 2026-04-11 08:11 | 39.34225 | 2.20015 | 35761 ft | 416 kts | 245° |
| 2026-04-11 08:11 | 39.33197 | 2.16524 | 35943 ft | 416 kts | 245° |
| 2026-04-11 08:11 | 39.32167 | 2.13037 | 36118 ft | 416 kts | 245° |
| 2026-04-11 08:12 | 39.31135 | 2.09545 | 36294 ft | 416 kts | 245° |
| 2026-04-11 08:12 | 39.30101 | 2.06050 | 36454 ft | 416 kts | 245° |
| 2026-04-11 08:12 | 39.29138 | 2.02787 | 36606 ft | 417 kts | 245° |
| 2026-04-11 08:12 | 39.28073 | 1.99194 | 36769 ft | 417 kts | 245° |
| 2026-04-11 08:13 | 39.27035 | 1.95700 | 36900 ft | 417 kts | 245° |
| 2026-04-11 08:13 | 39.25994 | 1.92205 | 36930 ft | 417 kts | 245° |
| 2026-04-11 08:13 | 39.23912 | 1.85222 | 36928 ft | 417 kts | 245° |
| 2026-04-11 08:14 | 39.21826 | 1.78241 | 36929 ft | 417 kts | 245° |
| 2026-04-11 08:14 | 39.19732 | 1.71260 | 36935 ft | 417 kts | 245° |
| 2026-04-11 08:15 | 39.17633 | 1.64281 | 36939 ft | 418 kts | 245° |
| 2026-04-11 08:15 | 39.15531 | 1.57293 | 36944 ft | 418 kts | 245° |
| 2026-04-11 08:16 | 39.13424 | 1.50308 | 36934 ft | 419 kts | 245° |
| 2026-04-11 08:16 | 39.11310 | 1.43317 | 36931 ft | 419 kts | 245° |
| 2026-04-11 08:17 | 39.09188 | 1.36317 | 36927 ft | 420 kts | 245° |
| 2026-04-11 08:17 | 39.07054 | 1.29308 | 36933 ft | 420 kts | 245° |
| 2026-04-11 08:18 | 39.04912 | 1.22304 | 36930 ft | 421 kts | 245° |
| 2026-04-11 08:18 | 39.02759 | 1.15296 | 36927 ft | 421 kts | 245° |
| 2026-04-11 08:19 | 39.00605 | 1.08280 | 36927 ft | 422 kts | 245° |
| 2026-04-11 08:19 | 38.98448 | 1.01267 | 36924 ft | 422 kts | 245° |
| 2026-04-11 08:20 | 38.96280 | 0.94251 | 36913 ft | 423 kts | 245° |
| 2026-04-11 08:20 | 38.94148 | 0.87360 | 36908 ft | 423 kts | 245° |
| 2026-04-11 08:21 | 38.91973 | 0.80322 | 36912 ft | 424 kts | 245° |
| 2026-04-11 08:21 | 38.89785 | 0.73292 | 36910 ft | 424 kts | 245° |
| 2026-04-11 08:22 | 38.87589 | 0.66256 | 36907 ft | 425 kts | 245° |
| 2026-04-11 08:22 | 38.85395 | 0.59211 | 36905 ft | 425 kts | 245° |
| 2026-04-11 08:23 | 38.83190 | 0.52169 | 36903 ft | 426 kts | 245° |
| 2026-04-11 08:23 | 38.80508 | 0.45455 | 36901 ft | 422 kts | 234° |
| 2026-04-11 08:24 | 38.77252 | 0.39178 | 36897 ft | 423 kts | 234° |
| 2026-04-11 08:24 | 38.74005 | 0.32885 | 36894 ft | 424 kts | 234° |
| 2026-04-11 08:25 | 38.70752 | 0.26582 | 36895 ft | 425 kts | 234° |
| 2026-04-11 08:25 | 38.67478 | 0.20283 | 36896 ft | 425 kts | 234° |
| 2026-04-11 08:26 | 38.64255 | 0.14102 | 36898 ft | 425 kts | 234° |
| 2026-04-11 08:26 | 38.60975 | 0.07805 | 36896 ft | 426 kts | 234° |
| 2026-04-11 08:27 | 38.57687 | 0.01500 | 36903 ft | 426 kts | 234° |
| 2026-04-11 08:27 | 38.54398 | -0.04797 | 36898 ft | 426 kts | 234° |
| 2026-04-11 08:28 | 38.51100 | -0.11091 | 36897 ft | 426 kts | 234° |
| 2026-04-11 08:28 | 38.47794 | -0.17385 | 36897 ft | 426 kts | 234° |
| 2026-04-11 08:29 | 38.44482 | -0.23666 | 36898 ft | 427 kts | 234° |
| 2026-04-11 08:29 | 38.41167 | -0.29950 | 36900 ft | 427 kts | 234° |
| 2026-04-11 08:30 | 38.37849 | -0.36230 | 36897 ft | 427 kts | 234° |
| 2026-04-11 08:30 | 38.34525 | -0.42508 | 36904 ft | 428 kts | 234° |
| 2026-04-11 08:31 | 38.31220 | -0.48753 | 36906 ft | 428 kts | 234° |
| 2026-04-11 08:31 | 38.27885 | -0.55031 | 36906 ft | 428 kts | 234° |
| 2026-04-11 08:32 | 38.25108 | -0.61812 | 36905 ft | 431 kts | 243° |
| 2026-04-11 08:32 | 38.22619 | -0.68741 | 36906 ft | 431 kts | 243° |
| 2026-04-11 08:33 | 38.20159 | -0.75536 | 36914 ft | 431 kts | 243° |
| 2026-04-11 08:33 | 38.17653 | -0.82417 | 36920 ft | 432 kts | 243° |
| 2026-04-11 08:34 | 38.15131 | -0.89351 | 36923 ft | 432 kts | 243° |
| 2026-04-11 08:34 | 38.12613 | -0.96284 | 36940 ft | 432 kts | 243° |
| 2026-04-11 08:35 | 38.10093 | -1.03214 | 36940 ft | 432 kts | 243° |
| 2026-04-11 08:35 | 38.07563 | -1.10141 | 36940 ft | 433 kts | 243° |
| 2026-04-11 08:36 | 38.05024 | -1.17069 | 36944 ft | 433 kts | 243° |
| 2026-04-11 08:36 | 38.02487 | -1.24002 | 36940 ft | 433 kts | 243° |
| 2026-04-11 08:37 | 37.99944 | -1.30921 | 36940 ft | 433 kts | 243° |
| 2026-04-11 08:37 | 37.97390 | -1.37838 | 36941 ft | 433 kts | 243° |
| 2026-04-11 08:38 | 37.94834 | -1.44755 | 36943 ft | 434 kts | 243° |
| 2026-04-11 08:38 | 37.92253 | -1.51720 | 36943 ft | 434 kts | 243° |
| 2026-04-11 08:39 | 37.89686 | -1.58644 | 36945 ft | 434 kts | 243° |
| 2026-04-11 08:39 | 37.87116 | -1.65559 | 36950 ft | 435 kts | 242° |
| 2026-04-11 08:40 | 37.84532 | -1.72481 | 36955 ft | 435 kts | 242° |
| 2026-04-11 08:40 | 37.81954 | -1.79353 | 36956 ft | 435 kts | 242° |
| 2026-04-11 08:41 | 37.79354 | -1.86268 | 36959 ft | 435 kts | 243° |
| 2026-04-11 08:41 | 37.76759 | -1.93183 | 36957 ft | 436 kts | 242° |
| 2026-04-11 08:42 | 37.74151 | -2.00104 | 36959 ft | 436 kts | 242° |
| 2026-04-11 08:43 | 37.70237 | -2.10488 | 36964 ft | 437 kts | 242° |
| 2026-04-11 08:43 | 37.67624 | -2.17406 | 36961 ft | 437 kts | 242° |
| 2026-04-11 08:44 | 37.64994 | -2.24327 | 36968 ft | 437 kts | 242° |
| 2026-04-11 08:44 | 37.62353 | -2.31235 | 36966 ft | 437 kts | 242° |
| 2026-04-11 08:45 | 37.60155 | -2.36995 | 36964 ft | 438 kts | 242° |
| 2026-04-11 08:45 | 37.57518 | -2.43917 | 36966 ft | 438 kts | 242° |
| 2026-04-11 08:46 | 37.54861 | -2.50886 | 36961 ft | 439 kts | 242° |
| 2026-04-11 08:46 | 37.52222 | -2.57777 | 36959 ft | 440 kts | 242° |
| 2026-04-11 08:47 | 37.49527 | -2.64713 | 36632 ft | 440 kts | 237° |
| 2026-04-11 08:47 | 37.47725 | -2.67772 | 36376 ft | 433 kts | 223° |
| 2026-04-11 08:47 | 37.45569 | -2.70424 | 36122 ft | 433 kts | 221° |
| 2026-04-11 08:47 | 37.43398 | -2.73049 | 35877 ft | 433 kts | 220° |
| 2026-04-11 08:48 | 37.41218 | -2.75665 | 35618 ft | 432 kts | 220° |
| 2026-04-11 08:48 | 37.39037 | -2.78270 | 35048 ft | 434 kts | 219° |
| 2026-04-11 08:48 | 37.36840 | -2.80890 | 34227 ft | 436 kts | 218° |
| 2026-04-11 08:48 | 37.34643 | -2.83514 | 33564 ft | 433 kts | 218° |
| 2026-04-11 08:49 | 37.32480 | -2.86102 | 33046 ft | 426 kts | 218° |
| 2026-04-11 08:49 | 37.30347 | -2.88655 | 32501 ft | 421 kts | 218° |
| 2026-04-11 08:49 | 37.28233 | -2.91178 | 31965 ft | 417 kts | 218° |
| 2026-04-11 08:49 | 37.26140 | -2.93674 | 31442 ft | 414 kts | 218° |
| 2026-04-11 08:50 | 37.24063 | -2.96157 | 30915 ft | 411 kts | 218° |
| 2026-04-11 08:50 | 37.21998 | -2.98623 | 30405 ft | 407 kts | 218° |
| 2026-04-11 08:50 | 37.19953 | -3.01061 | 29874 ft | 404 kts | 218° |
| 2026-04-11 08:50 | 37.17923 | -3.03474 | 29351 ft | 400 kts | 217° |
| 2026-04-11 08:51 | 37.15909 | -3.05867 | 28853 ft | 395 kts | 217° |
| 2026-04-11 08:51 | 37.13926 | -3.08222 | 28374 ft | 390 kts | 217° |
| 2026-04-11 08:51 | 37.11970 | -3.10545 | 27898 ft | 386 kts | 217° |
| 2026-04-11 08:51 | 37.10034 | -3.12842 | 27434 ft | 381 kts | 217° |
| 2026-04-11 08:52 | 37.06209 | -3.17367 | 26539 ft | 375 kts | 217° |
| 2026-04-11 08:52 | 37.04320 | -3.19596 | 26105 ft | 372 kts | 217° |
| 2026-04-11 08:52 | 37.02443 | -3.21810 | 25678 ft | 370 kts | 217° |
| 2026-04-11 08:53 | 37.00578 | -3.24012 | 25245 ft | 367 kts | 217° |
| 2026-04-11 08:53 | 36.98734 | -3.26194 | 24823 ft | 363 kts | 217° |
| 2026-04-11 08:53 | 36.96903 | -3.28358 | 24399 ft | 361 kts | 217° |
| 2026-04-11 08:53 | 36.95082 | -3.30503 | 23971 ft | 359 kts | 216° |
| 2026-04-11 08:54 | 36.93268 | -3.32640 | 23517 ft | 358 kts | 217° |
| 2026-04-11 08:54 | 36.91463 | -3.34767 | 23037 ft | 356 kts | 216° |
| 2026-04-11 08:54 | 36.89670 | -3.36880 | 22607 ft | 353 kts | 217° |
| 2026-04-11 08:54 | 36.87889 | -3.38977 | 22162 ft | 350 kts | 217° |
| 2026-04-11 08:55 | 36.86121 | -3.41051 | 21728 ft | 347 kts | 217° |
| 2026-04-11 08:55 | 36.84369 | -3.43104 | 21294 ft | 343 kts | 217° |
| 2026-04-11 08:55 | 36.82640 | -3.45131 | 20867 ft | 340 kts | 217° |
| 2026-04-11 08:55 | 36.80918 | -3.47152 | 20425 ft | 339 kts | 217° |
| 2026-04-11 08:56 | 36.79202 | -3.49165 | 19998 ft | 338 kts | 217° |
| 2026-04-11 08:56 | 36.77486 | -3.51173 | 19566 ft | 339 kts | 218° |
| 2026-04-11 08:56 | 36.75763 | -3.53187 | 19133 ft | 339 kts | 218° |
| 2026-04-11 08:56 | 36.74041 | -3.55200 | 18707 ft | 340 kts | 218° |
| 2026-04-11 08:57 | 36.72316 | -3.57217 | 18273 ft | 340 kts | 218° |
| 2026-04-11 08:57 | 36.70592 | -3.59232 | 17812 ft | 339 kts | 219° |
| 2026-04-11 08:57 | 36.68874 | -3.61234 | 17381 ft | 337 kts | 219° |
| 2026-04-11 08:57 | 36.67164 | -3.63225 | 16958 ft | 335 kts | 219° |
| 2026-04-11 08:58 | 36.65465 | -3.65206 | 16545 ft | 334 kts | 220° |
| 2026-04-11 08:58 | 36.63776 | -3.67177 | 16140 ft | 333 kts | 220° |
| 2026-04-11 08:58 | 36.62085 | -3.69148 | 15727 ft | 332 kts | 220° |
| 2026-04-11 08:58 | 36.60404 | -3.71104 | 15319 ft | 331 kts | 221° |
| 2026-04-11 08:59 | 36.58726 | -3.73057 | 14911 ft | 330 kts | 221° |
| 2026-04-11 08:59 | 36.57054 | -3.75002 | 14502 ft | 329 kts | 222° |
| 2026-04-11 08:59 | 36.55474 | -3.76841 | 14120 ft | 328 kts | 222° |
| 2026-04-11 08:59 | 36.53832 | -3.78746 | 13706 ft | 327 kts | 223° |
| 2026-04-11 09:00 | 36.52174 | -3.80667 | 13272 ft | 325 kts | 223° |
| 2026-04-11 09:00 | 36.50528 | -3.82573 | 12903 ft | 321 kts | 223° |
| 2026-04-11 09:00 | 36.48906 | -3.84453 | 12529 ft | 317 kts | 223° |
| 2026-04-11 09:00 | 36.47321 | -3.86293 | 12305 ft | 302 kts | 223° |
| 2026-04-11 09:01 | 36.45826 | -3.88025 | 12050 ft | 286 kts | 222° |
| 2026-04-11 09:01 | 36.44421 | -3.89649 | 11923 ft | 267 kts | 222° |
| 2026-04-11 09:01 | 36.43094 | -3.91181 | 11804 ft | 255 kts | 222° |
| 2026-04-11 09:01 | 36.41806 | -3.92668 | 11693 ft | 252 kts | 222° |
| 2026-04-11 09:02 | 36.40525 | -3.94145 | 11582 ft | 251 kts | 222° |
| 2026-04-11 09:02 | 36.39240 | -3.95623 | 11466 ft | 252 kts | 221° |
| 2026-04-11 09:02 | 36.37939 | -3.97093 | 11070 ft | 253 kts | 220° |
| 2026-04-11 09:02 | 36.36629 | -3.98549 | 10685 ft | 252 kts | 220° |
| 2026-04-11 09:03 | 36.35346 | -4.00033 | 10316 ft | 253 kts | 229° |
| 2026-04-11 09:03 | 36.34606 | -4.01975 | 9940 ft | 253 kts | 262° |
| 2026-04-11 09:03 | 36.34786 | -4.04108 | 9547 ft | 251 kts | 295° |
| 2026-04-11 09:03 | 36.35775 | -4.05855 | 9172 ft | 249 kts | 314° |
| 2026-04-11 09:04 | 36.36943 | -4.07451 | 8792 ft | 251 kts | 314° |
| 2026-04-11 09:04 | 36.38117 | -4.09062 | 8412 ft | 252 kts | 313° |
| 2026-04-11 09:04 | 36.39283 | -4.10671 | 8089 ft | 251 kts | 313° |
| 2026-04-11 09:04 | 36.40447 | -4.12280 | 7753 ft | 250 kts | 313° |
| 2026-04-11 09:05 | 36.41609 | -4.13886 | 7417 ft | 250 kts | 313° |
| 2026-04-11 09:05 | 36.42772 | -4.15494 | 7081 ft | 250 kts | 313° |
| 2026-04-11 09:05 | 36.43854 | -4.16992 | 6764 ft | 250 kts | 313° |
| 2026-04-11 09:05 | 36.44887 | -4.18424 | 6469 ft | 250 kts | 313° |
| 2026-04-11 09:06 | 36.46052 | -4.20048 | 6040 ft | 253 kts | 313° |
| 2026-04-11 09:06 | 36.47223 | -4.21676 | 5684 ft | 252 kts | 313° |
| 2026-04-11 09:06 | 36.48388 | -4.23294 | 5337 ft | 249 kts | 314° |
| 2026-04-11 09:06 | 36.49530 | -4.24879 | 5010 ft | 243 kts | 314° |
| 2026-04-11 09:07 | 36.50644 | -4.26426 | 4703 ft | 237 kts | 314° |
| 2026-04-11 09:07 | 36.51729 | -4.27934 | 4373 ft | 230 kts | 314° |
| 2026-04-11 09:07 | 36.52770 | -4.29382 | 4070 ft | 220 kts | 314° |
| 2026-04-11 09:07 | 36.53774 | -4.30777 | 3784 ft | 212 kts | 314° |
| 2026-04-11 09:08 | 36.54753 | -4.32138 | 3505 ft | 211 kts | 313° |
| 2026-04-11 09:08 | 36.55735 | -4.33503 | 3226 ft | 212 kts | 313° |
| 2026-04-11 09:08 | 36.56716 | -4.34870 | 2934 ft | 210 kts | 313° |
| 2026-04-11 09:08 | 36.57673 | -4.36202 | 2662 ft | 204 kts | 313° |
| 2026-04-11 09:09 | 36.58606 | -4.37501 | 2447 ft | 196 kts | 313° |
| 2026-04-11 09:09 | 36.59481 | -4.38715 | 2205 ft | 181 kts | 313° |
| 2026-04-11 09:09 | 36.60288 | -4.39839 | 1954 ft | 167 kts | 312° |
| 2026-04-11 09:09 | 36.61015 | -4.40858 | 1792 ft | 151 kts | 313° |
| 2026-04-11 09:10 | 36.61696 | -4.41807 | 1551 ft | 144 kts | 313° |
| 2026-04-11 09:10 | 36.62357 | -4.42728 | 1308 ft | 142 kts | 312° |
| 2026-04-11 09:10 | 36.63006 | -4.43640 | 1100 ft | 140 kts | 312° |
| 2026-04-11 09:10 | 36.63654 | -4.44543 | 924 ft | 139 kts | 312° |
| 2026-04-11 09:11 | 36.64297 | -4.45444 | 750 ft | 139 kts | 312° |
| 2026-04-11 09:11 | 36.64937 | -4.46342 | 570 ft | 138 kts | 312° |
| 2026-04-11 09:11 | 36.65574 | -4.47236 | 368 ft | 137 kts | 312° |
| 2026-04-11 09:11 | 36.66208 | -4.48121 | 177 ft | 137 kts | 313° |
| 2026-04-11 09:12 | 36.66840 | -4.49001 | 37 ft | 129 kts | 312° |
| 2026-04-11 09:12 | 36.67317 | -4.49667 | 35 ft | 78 kts | 311° |
| 2026-04-11 09:12 | 36.67562 | -4.50010 | 36 ft | 33 kts | 312° |
| 2026-04-11 09:12 | 36.67687 | -4.50151 | 37 ft | 22 kts | 328° |
| 2026-04-11 09:13 | 36.67805 | -4.50222 | 35 ft | 12 kts | 341° |
| 2026-04-11 09:13 | 36.67875 | -4.50203 | 34 ft | 11 kts | 64° |
| 2026-04-11 09:13 | 36.67854 | -4.50120 | 35 ft | 10 kts | 127° |
| 2026-04-11 09:13 | 36.67812 | -4.50060 | 35 ft | 8 kts | 133° |
| 2026-04-11 09:14 | 36.67774 | -4.50011 | 35 ft | 7 kts | 132° |
| 2026-04-11 09:14 | 36.67736 | -4.49957 | 35 ft | 8 kts | 131° |
| 2026-04-11 09:14 | 36.67727 | -4.49897 | 35 ft | 7 kts | 61° |
| 2026-04-11 09:14 | 36.67744 | -4.49846 | 35 ft | 6 kts | 89° |
| 2026-04-11 09:15 | 36.67720 | -4.49793 | 35 ft | 8 kts | 129° |
| 2026-04-11 09:15 | 36.67680 | -4.49737 | 35 ft | 9 kts | 131° |
| 2026-04-11 09:15 | 36.67634 | -4.49673 | 35 ft | 10 kts | 133° |
| 2026-04-11 09:15 | 36.67591 | -4.49615 | 35 ft | 9 kts | 133° |
| 2026-04-11 09:16 | 36.67582 | -4.49559 | 35 ft | 6 kts | 58° |
| 2026-04-11 09:16 | 36.67611 | -4.49525 | 35 ft | 5 kts | 41° |
| 2026-04-11 09:16 | 36.67633 | -4.49501 | 35 ft | 4 kts | 41° |
| 2026-04-11 09:16 | 36.67648 | -4.49484 | 35 ft | 2 kts | 41° |
| 2026-04-11 09:17 | 36.67657 | -4.49474 | 35 ft | 1 kts | 42° |
| 2026-04-11 09:17 | 36.67660 | -4.49471 | 35 ft | 0 kts | 42° |
| 2026-04-11 09:17 | 36.67664 | -4.49466 | 35 ft | 1 kts | 43° |
| 2026-04-11 09:17 | 36.67666 | -4.49464 | 35 ft | 0 kts | 43° |